createdAt,value
2018-03-30T00:00:09.089Z,97986.88
2018-03-30T00:02:38.539Z,97984.64
2018-03-30T00:05:08.671Z,97989.55
2018-03-30T00:07:38.132Z,97989.18
2018-03-30T00:10:09.055Z,97984.67
2018-03-30T00:12:40.043Z,97986.93
2018-03-30T00:15:10.095Z,97985.09
2018-03-30T00:17:39.891Z,97987.09
2018-03-30T00:20:10.385Z,97986.45
2018-03-30T00:22:40.197Z,97992.07
2018-03-30T00:25:09.604Z,97986.31
2018-03-30T00:27:39.403Z,97994.61
2018-03-30T00:30:08.901Z,97990.38
2018-03-30T00:32:38.186Z,97995.70
2018-03-30T00:35:07.974Z,97992.16
2018-03-30T00:37:37.718Z,97987.84
2018-03-30T00:40:07.776Z,97990.08
2018-03-30T00:42:37.708Z,97994.03
2018-03-30T00:45:07.125Z,97990.22
2018-03-30T00:47:36.612Z,97987.57
2018-03-30T00:50:06.541Z,97991.42
2018-03-30T00:52:36.062Z,97988.19
2018-03-30T00:55:05.920Z,97988.72
2018-03-30T00:57:35.446Z,97985.41
2018-03-30T01:00:05.104Z,97986.45
2018-03-30T01:02:35.338Z,97989.03
2018-03-30T01:05:05.560Z,97980.06
2018-03-30T01:07:35.458Z,97975.32
2018-03-30T01:10:04.965Z,97963.54
2018-03-30T01:12:36.018Z,97977.34
2018-03-30T01:15:05.720Z,97976.98
2018-03-30T01:17:34.910Z,97978.36
2018-03-30T01:20:05.079Z,97977.14
2018-03-30T01:22:34.487Z,97977.62
2018-03-30T01:25:04.497Z,97970.84
2018-03-30T01:27:34.417Z,97969.73
2018-03-30T01:30:04.115Z,97968.82
2018-03-30T01:32:33.439Z,97973.48
2018-03-30T01:35:03.297Z,97969.48
2018-03-30T01:37:32.790Z,97968.49
2018-03-30T01:40:02.083Z,97954.55
2018-03-30T01:42:31.922Z,97955.94
2018-03-30T01:45:01.257Z,97959.86
2018-03-30T01:47:30.779Z,97954.83
2018-03-30T01:50:00.592Z,97958.50
2018-03-30T01:52:29.789Z,97947.13
2018-03-30T01:54:59.182Z,97945.69
2018-03-30T01:57:29.262Z,97948.55
2018-03-30T01:59:58.959Z,97946.45
2018-03-30T02:02:30.955Z,97936.63
2018-03-30T02:05:01.992Z,97936.63
2018-03-30T02:07:33.517Z,97932.70
2018-03-30T02:10:03.002Z,97934.84
2018-03-30T02:12:32.860Z,97931.57
2018-03-30T02:15:02.798Z,97930.80
2018-03-30T02:17:32.253Z,97927.36
2018-03-30T02:20:01.954Z,97924.39
2018-03-30T02:22:31.493Z,97919.23
2018-03-30T02:25:00.898Z,97916.69
2018-03-30T02:27:30.724Z,97909.42
2018-03-30T02:30:00.261Z,97912.28
2018-03-30T02:34:50.736Z,97905.49
2018-03-30T02:37:20.382Z,97902.74
2018-03-30T02:39:49.653Z,97903.96
2018-03-30T02:42:19.932Z,97894.31
2018-03-30T02:44:49.311Z,97896.73
2018-03-30T02:47:18.637Z,97892.66
2018-03-30T02:49:48.253Z,97893.17
2018-03-30T02:52:18.429Z,97890.92
2018-03-30T02:54:47.937Z,97886.95
2018-03-30T02:57:17.494Z,97890.36
2018-03-30T02:59:46.871Z,97888.50
2018-03-30T03:02:16.023Z,97886.80
2018-03-30T03:04:45.842Z,97884.88
2018-03-30T03:07:15.125Z,97876.16
2018-03-30T03:09:44.377Z,97874.45
2018-03-30T03:12:16.040Z,97869.92
2018-03-30T03:14:46.620Z,97871.52
2018-03-30T03:17:16.261Z,97870.04
2018-03-30T03:19:45.794Z,97870.25
2018-03-30T03:22:15.094Z,97870.77
2018-03-30T03:24:44.522Z,97871.97
2018-03-30T03:27:14.458Z,97876.84
2018-03-30T03:29:44.344Z,97878.56
2018-03-30T03:32:13.629Z,97875.62
2018-03-30T03:34:43.509Z,97876.94
2018-03-30T03:37:12.768Z,97874.17
2018-03-30T03:39:42.243Z,97874.95
2018-03-30T03:42:11.961Z,97871.80
2018-03-30T03:44:41.417Z,97874.10
2018-03-30T03:47:10.904Z,97872.45
2018-03-30T03:49:40.924Z,97874.49
2018-03-30T03:52:10.436Z,97875.01
2018-03-30T03:54:40.560Z,97868.59
2018-03-30T03:57:10.576Z,97868.73
2018-03-30T03:59:39.961Z,97877.80
2018-03-30T04:02:09.193Z,97874.91
2018-03-30T04:04:39.186Z,97878.62
2018-03-30T04:07:08.806Z,97875.04
2018-03-30T04:09:38.173Z,97874.59
2018-03-30T04:12:08.120Z,97877.45
2018-03-30T04:14:37.575Z,97877.15
2018-03-30T04:17:06.767Z,97880.73
2018-03-30T04:19:36.127Z,97881.61
2018-03-30T04:22:05.443Z,97868.69
2018-03-30T04:24:35.516Z,97869.52
2018-03-30T04:27:04.913Z,97871.72
2018-03-30T04:29:34.550Z,97872.14
2018-03-30T04:32:04.227Z,97872.44
2018-03-30T04:34:34.218Z,97870.38
2018-03-30T04:37:03.649Z,97868.98
2018-03-30T04:39:33.216Z,97870.80
2018-03-30T04:42:02.729Z,97863.84
2018-03-30T04:44:35.392Z,97859.68
2018-03-30T04:47:04.941Z,97865.75
2018-03-30T04:49:34.820Z,97865.20
2018-03-30T04:52:04.597Z,97861.27
2018-03-30T04:54:34.344Z,97866.59
2018-03-30T04:57:03.835Z,97867.53
2018-03-30T04:59:33.241Z,97873.33
2018-03-30T05:02:03.105Z,97874.55
2018-03-30T05:04:31.797Z,97875.29
2018-03-30T05:07:01.782Z,97879.25
2018-03-30T05:09:30.901Z,97873.11
2018-03-30T05:12:01.153Z,97881.06
2018-03-30T05:14:31.867Z,97892.48
2018-03-30T05:17:01.615Z,97885.62
2018-03-30T05:19:30.985Z,97885.42
2018-03-30T05:22:00.801Z,97882.58
2018-03-30T05:24:30.413Z,97891.72
2018-03-30T05:26:59.817Z,97891.08
2018-03-30T05:29:29.182Z,97896.38
2018-03-30T05:31:58.918Z,97893.38
2018-03-30T05:34:28.441Z,97881.94
2018-03-30T05:36:57.784Z,97875.11
2018-03-30T05:39:27.572Z,97878.50
2018-03-30T05:41:56.849Z,97873.39
2018-03-30T05:44:26.376Z,97872.38
2018-03-30T05:46:56.114Z,97866.64
2018-03-30T05:49:25.543Z,97867.84
2018-03-30T05:51:55.248Z,97876.43
2018-03-30T05:54:25.034Z,97880.19
2018-03-30T05:56:54.598Z,97878.50
2018-03-30T05:59:23.798Z,97876.81
2018-03-30T06:01:55.092Z,97882.75
2018-03-30T06:04:24.482Z,97881.52
2018-03-30T06:06:55.053Z,97883.80
2018-03-30T06:09:24.987Z,97899.13
2018-03-30T06:11:54.554Z,97901.74
2018-03-30T06:14:24.554Z,97895.38
2018-03-30T06:16:54.016Z,97903.69
2018-03-30T06:19:23.429Z,97903.54
2018-03-30T06:21:52.933Z,97903.59
2018-03-30T06:24:22.381Z,97903.96
2018-03-30T06:26:52.066Z,97897.94
2018-03-30T06:29:21.915Z,97896.46
2018-03-30T06:31:52.246Z,97898.36
2018-03-30T06:34:21.569Z,97899.80
2018-03-30T06:36:51.589Z,97895.39
2018-03-30T06:39:21.282Z,97897.51
2018-03-30T06:41:51.607Z,97897.07
2018-03-30T06:44:20.800Z,97889.69
2018-03-30T06:46:51.161Z,97893.75
2018-03-30T06:49:20.492Z,97888.16
2018-03-30T06:51:50.003Z,97891.88
2018-03-30T06:54:20.401Z,97891.19
2018-03-30T06:56:49.904Z,97887.67
2018-03-30T06:59:19.393Z,97887.95
2018-03-30T07:01:49.339Z,97892.06
2018-03-30T07:04:18.676Z,97885.22
2018-03-30T07:06:48.811Z,97883.74
2018-03-30T07:09:18.577Z,97884.11
2018-03-30T07:11:47.824Z,97876.08
2018-03-30T07:14:19.647Z,97886.89
2018-03-30T07:16:51.671Z,97876.91
2018-03-30T07:19:20.874Z,97876.89
2018-03-30T07:21:50.239Z,97881.97
2018-03-30T07:24:20.252Z,97877.69
2018-03-30T07:26:50.208Z,97871.44
2018-03-30T07:29:19.683Z,97869.52
2018-03-30T07:31:50.033Z,97868.36
2018-03-30T07:34:19.181Z,97861.89
2018-03-30T07:36:49.002Z,97856.27
2018-03-30T07:39:18.175Z,97860.44
2018-03-30T07:41:48.740Z,97846.91
2018-03-30T07:44:18.549Z,97844.73
2018-03-30T07:46:47.695Z,97850.39
2018-03-30T07:49:17.634Z,97850.50
2018-03-30T07:51:47.427Z,97853.09
2018-03-30T07:54:18.219Z,97855.24
2018-03-30T07:56:47.657Z,97859.08
2018-03-30T07:59:17.336Z,97853.81
2018-03-30T08:01:46.772Z,97856.83
2018-03-30T08:04:16.832Z,97858.64
2018-03-30T08:06:46.771Z,97860.02
2018-03-30T08:09:16.706Z,97844.84
2018-03-30T08:11:46.765Z,97843.25
2018-03-30T08:14:15.954Z,97834.80
2018-03-30T08:16:46.798Z,97828.02
2018-03-30T08:19:16.452Z,97827.47
2018-03-30T08:21:46.390Z,97834.23
2018-03-30T08:24:17.364Z,97837.88
2018-03-30T08:26:48.747Z,97840.92
2018-03-30T08:29:18.970Z,97826.28
2018-03-30T08:31:52.783Z,97825.67
2018-03-30T08:34:23.901Z,97815.52
2018-03-30T08:36:53.445Z,97827.00
2018-03-30T08:39:23.771Z,97824.70
2018-03-30T08:41:54.143Z,97833.55
2018-03-30T08:44:24.577Z,97822.55
2018-03-30T08:46:57.053Z,97827.73
2018-03-30T08:49:28.279Z,97816.92
2018-03-30T08:52:01.625Z,97815.89
2018-03-30T08:54:32.359Z,97814.60
2018-03-30T08:57:02.441Z,97818.42
2018-03-30T08:59:32.192Z,97816.61
2018-03-30T09:02:03.907Z,97803.36
2018-03-30T09:04:33.335Z,97807.92
2018-03-30T09:07:02.846Z,97805.59
2018-03-30T09:09:32.566Z,97800.48
2018-03-30T09:12:02.602Z,97803.06
2018-03-30T09:14:32.111Z,97794.53
2018-03-30T09:17:01.316Z,97790.84
2018-03-30T09:19:31.288Z,97792.09
2018-03-30T09:22:00.552Z,97782.91
2018-03-30T09:24:29.737Z,97780.83
2018-03-30T09:26:58.919Z,97782.36
2018-03-30T09:29:28.712Z,97773.17
2018-03-30T09:31:57.986Z,97772.69
2018-03-30T09:34:27.758Z,97774.70
2018-03-30T09:36:57.439Z,97779.18
2018-03-30T09:39:27.189Z,97767.20
2018-03-30T09:41:56.368Z,97759.22
2018-03-30T09:44:25.692Z,97761.50
2018-03-30T09:46:55.797Z,97752.20
2018-03-30T09:49:25.698Z,97746.69
2018-03-30T09:51:55.458Z,97747.69
2018-03-30T09:54:25.404Z,97742.69
2018-03-30T09:56:54.664Z,97732.90
2018-03-30T09:59:23.850Z,97735.78
2018-03-30T10:01:54.861Z,97731.19
2018-03-30T10:04:24.247Z,97730.11
2018-03-30T10:06:53.556Z,97727.95
2018-03-30T10:09:23.306Z,97724.09
2018-03-30T10:11:52.505Z,97717.72
2018-03-30T10:14:21.919Z,97708.39
2018-03-30T10:16:51.637Z,97704.90
2018-03-30T10:19:20.826Z,97696.16
2018-03-30T10:21:50.057Z,97688.41
2018-03-30T10:24:19.644Z,97701.75
2018-03-30T10:26:48.847Z,97696.38
2018-03-30T10:29:18.162Z,97679.20
2018-03-30T10:31:47.967Z,97680.09
2018-03-30T10:34:17.274Z,97676.78
2018-03-30T10:36:46.539Z,97677.90
2018-03-30T10:39:16.285Z,97687.39
2018-03-30T10:41:45.696Z,97669.94
2018-03-30T10:44:15.161Z,97675.05
2018-03-30T10:46:44.845Z,97669.28
2018-03-30T10:49:14.174Z,97666.44
2018-03-30T10:51:43.500Z,97669.23
2018-03-30T10:54:13.170Z,97665.88
2018-03-30T10:56:42.360Z,97663.70
2018-03-30T10:59:11.930Z,97658.99
2018-03-30T11:01:41.907Z,97652.17
2018-03-30T11:04:11.402Z,97654.50
2018-03-30T11:06:42.411Z,97655.34
2018-03-30T11:09:12.684Z,97650.06
2018-03-30T11:11:41.972Z,97647.45
2018-03-30T11:14:11.565Z,97648.59
2018-03-30T11:16:41.384Z,97646.31
2018-03-30T11:19:11.020Z,97640.36
2018-03-30T11:21:40.274Z,97637.77
2018-03-30T11:24:09.679Z,97627.50
2018-03-30T11:26:38.814Z,97628.89
2018-03-30T11:29:08.927Z,97617.47
2018-03-30T11:31:38.612Z,97614.13
2018-03-30T11:34:08.358Z,97610.94
2018-03-30T11:36:37.809Z,97603.05
2018-03-30T11:39:07.109Z,97597.58
2018-03-30T11:41:36.269Z,97592.66
2018-03-30T11:44:05.518Z,97585.26
2018-03-30T11:46:34.674Z,97578.25
2018-03-30T11:49:04.095Z,97575.84
2018-03-30T11:51:33.544Z,97564.38
2018-03-30T11:54:02.692Z,97551.19
2018-03-30T11:56:31.882Z,97546.81
2018-03-30T11:59:01.021Z,97540.76
2018-03-30T12:01:30.175Z,97552.19
2018-03-30T12:03:59.299Z,97536.98
2018-03-30T12:06:28.869Z,97531.51
2018-03-30T12:08:58.123Z,97522.66
2018-03-30T12:11:27.423Z,97521.96
2018-03-30T12:13:56.678Z,97521.52
2018-03-30T12:16:25.869Z,97518.92
2018-03-30T12:18:55.013Z,97515.45
2018-03-30T12:21:24.147Z,97517.06
2018-03-30T12:23:53.304Z,97508.27
2018-03-30T12:26:22.777Z,97505.48
2018-03-30T12:28:51.945Z,97506.24
2018-03-30T12:31:21.078Z,97502.65
2018-03-30T12:33:50.199Z,97496.86
2018-03-30T12:36:19.314Z,97491.86
2018-03-30T12:38:48.898Z,97488.06
2018-03-30T12:41:18.366Z,97476.36
2018-03-30T12:43:47.467Z,97473.13
2018-03-30T12:46:16.642Z,97464.70
2018-03-30T12:48:46.242Z,97458.50
2018-03-30T12:51:15.373Z,97460.12
2018-03-30T12:53:44.607Z,97450.21
2018-03-30T12:56:14.089Z,97451.75
2018-03-30T12:58:43.181Z,97454.39
2018-03-30T13:01:12.316Z,97450.34
2018-03-30T13:03:41.829Z,97438.70
2018-03-30T13:06:11.049Z,97432.89
2018-03-30T13:08:40.374Z,97420.53
2018-03-30T13:11:10.062Z,97422.29
2018-03-30T13:13:39.501Z,97413.28
2018-03-30T13:16:08.839Z,97407.16
2018-03-30T13:18:38.432Z,97393.10
2018-03-30T13:21:07.634Z,97390.58
2018-03-30T13:23:36.929Z,97399.83
2018-03-30T13:26:06.581Z,97382.52
2018-03-30T13:28:36.039Z,97389.81
2018-03-30T13:31:05.285Z,97386.95
2018-03-30T13:33:34.830Z,97386.63
2018-03-30T13:36:04.190Z,97385.51
2018-03-30T13:38:33.337Z,97380.59
2018-03-30T13:41:02.933Z,97373.81
2018-03-30T13:43:32.143Z,97383.12
2018-03-30T13:46:01.356Z,97381.24
2018-03-30T13:48:30.807Z,97381.21
2018-03-30T13:51:00.093Z,97375.17
2018-03-30T13:53:29.314Z,97371.11
2018-03-30T13:55:58.822Z,97378.87
2018-03-30T13:58:28.033Z,97373.55
2018-03-30T14:00:57.418Z,97368.25
2018-03-30T14:03:27.067Z,97359.11
2018-03-30T14:05:56.595Z,97354.13
2018-03-30T14:08:26.184Z,97357.67
2018-03-30T14:10:55.902Z,97355.43
2018-03-30T14:13:25.354Z,97354.52
2018-03-30T14:15:55.131Z,97348.63
2018-03-30T14:18:24.413Z,97342.27
2018-03-30T14:20:53.904Z,97338.59
2018-03-30T14:23:23.636Z,97331.20
2018-03-30T14:25:54.322Z,97324.34
2018-03-30T14:28:26.086Z,97317.16
2018-03-30T14:30:58.940Z,97314.34
2018-03-30T14:33:29.782Z,97308.45
2018-03-30T14:35:59.335Z,97305.78
2018-03-30T14:38:29.310Z,97302.44
2018-03-30T14:41:00.194Z,97300.80
2018-03-30T14:43:29.904Z,97296.55
2018-03-30T14:45:59.403Z,97297.46
2018-03-30T14:48:29.609Z,97295.64
2018-03-30T14:50:58.790Z,97290.66
2018-03-30T14:53:32.290Z,97287.93
2018-03-30T14:56:06.074Z,97284.03
2018-03-30T14:58:35.965Z,97287.11
2018-03-30T15:01:06.055Z,97279.81
2018-03-30T15:03:37.454Z,97270.61
2018-03-30T15:06:07.726Z,97267.22
2018-03-30T15:08:40.907Z,97269.77
2018-03-30T15:11:10.745Z,97265.40
2018-03-30T15:13:41.667Z,97263.11
2018-03-30T15:16:13.187Z,97262.48
2018-03-30T15:18:45.302Z,97260.86
2018-03-30T15:21:14.581Z,97261.17
2018-03-30T15:23:54.073Z,97254.69
2018-03-30T15:26:23.931Z,97253.56
2018-03-30T15:28:53.479Z,97249.64
2018-03-30T15:31:24.848Z,97241.15
2018-03-30T15:33:54.622Z,97237.48
2018-03-30T15:36:25.737Z,97233.66
2018-03-30T15:38:56.196Z,97224.45
2018-03-30T15:41:32.389Z,97228.30
2018-03-30T15:44:04.456Z,97219.19
2018-03-30T15:46:39.147Z,97216.82
2018-03-30T15:49:08.789Z,97207.63
2018-03-30T15:51:39.396Z,97196.06
2018-03-30T15:54:08.659Z,97195.95
2018-03-30T15:56:38.033Z,97201.05
2018-03-30T15:59:07.517Z,97194.62
2018-03-30T16:01:36.827Z,97201.51
2018-03-30T16:04:06.568Z,97201.50
2018-03-30T16:06:36.391Z,97202.17
2018-03-30T16:09:07.849Z,97199.77
2018-03-30T16:11:37.159Z,97203.82
2018-03-30T16:14:06.953Z,97196.28
2018-03-30T16:16:36.540Z,97192.83
2018-03-30T16:19:04.354Z,97194.41
2018-03-30T16:36:37.929Z,97166.02
2018-03-30T16:39:06.618Z,97160.14
2018-03-30T16:41:35.221Z,97154.70
2018-03-30T16:44:04.292Z,97158.96
2018-03-30T16:46:32.908Z,97148.59
2018-03-30T16:49:01.657Z,97147.64
2018-03-30T16:51:30.781Z,97143.58
2018-03-30T16:53:59.725Z,97135.50
2018-03-30T16:56:28.383Z,97131.59
2018-03-30T16:58:57.337Z,97138.05
2018-03-30T17:01:26.160Z,97129.48
2018-03-30T17:03:54.962Z,97124.31
2018-03-30T17:06:24.392Z,97124.98
2018-03-30T17:08:53.001Z,97124.33
2018-03-30T17:11:21.648Z,97123.16
2018-03-30T17:13:50.583Z,97123.60
2018-03-30T17:16:19.234Z,97121.13
2018-03-30T17:18:47.913Z,97125.24
2018-03-30T17:21:16.799Z,97116.49
2018-03-30T17:23:45.405Z,97121.53
2018-03-30T17:26:14.365Z,97120.63
2018-03-30T17:28:43.425Z,97115.75
2018-03-30T17:31:12.244Z,97117.15
2018-03-30T17:33:40.966Z,97124.92
2018-03-30T17:36:09.845Z,97135.44
2018-03-30T17:38:38.572Z,97140.39
2018-03-30T17:41:07.586Z,97139.74
2018-03-30T17:43:36.506Z,97146.00
2018-03-30T17:46:05.136Z,97144.68
2018-03-30T17:48:33.733Z,97150.37
2018-03-30T17:51:02.788Z,97153.02
2018-03-30T17:53:31.481Z,97152.18
2018-03-30T17:56:00.101Z,97153.50
2018-03-30T17:58:28.978Z,97161.12
2018-03-30T18:00:57.684Z,97153.70
2018-03-30T18:03:26.281Z,97161.80
2018-03-30T18:05:55.264Z,97165.13
2018-03-30T18:08:23.959Z,97160.80
2018-03-30T18:10:52.577Z,97169.45
2018-03-30T18:13:21.462Z,97168.61
2018-03-30T18:15:50.153Z,97171.94
2018-03-30T18:18:18.748Z,97166.89
2018-03-30T18:20:47.656Z,97173.28
2018-03-30T18:23:16.335Z,97174.13
2018-03-30T18:25:46.556Z,97177.58
2018-03-30T18:28:15.517Z,97175.44
2018-03-30T18:30:44.162Z,97173.30
2018-03-30T18:33:13.309Z,97176.53
2018-03-30T18:35:42.468Z,97182.92
2018-03-30T18:38:11.102Z,97190.27
2018-03-30T18:40:39.706Z,97187.20
2018-03-30T18:43:08.766Z,97189.58
2018-03-30T18:45:37.347Z,97197.15
2018-03-30T18:48:05.972Z,97193.70
2018-03-30T18:50:34.949Z,97191.60
2018-03-30T18:53:03.673Z,97191.51
2018-03-30T18:55:32.435Z,97189.22
2018-03-30T18:58:01.527Z,97188.39
2018-03-30T19:00:30.621Z,97189.41
2018-03-30T19:02:59.413Z,97191.94
2018-03-30T19:05:28.400Z,97190.84
2018-03-30T19:07:57.021Z,97186.75
2018-03-30T19:10:25.681Z,97182.58
2018-03-30T19:12:54.818Z,97181.43
2018-03-30T19:15:23.484Z,97170.09
2018-03-30T19:17:52.209Z,97168.17
2018-03-30T19:20:21.167Z,97167.88
2018-03-30T19:22:49.825Z,97163.70
2018-03-30T19:25:18.470Z,97157.69
2018-03-30T19:27:47.681Z,97160.34
2018-03-30T19:30:16.254Z,97162.17
2018-03-30T19:32:44.843Z,97158.17
2018-03-30T19:35:13.820Z,97161.02
2018-03-30T19:37:42.665Z,97153.42
2018-03-30T19:40:11.404Z,97159.20
2018-03-30T19:42:40.328Z,97157.70
2018-03-30T19:45:09.364Z,97158.78
2018-03-30T19:47:38.089Z,97157.70
2018-03-30T19:50:07.117Z,97156.59
2018-03-30T19:52:35.971Z,97164.17
2018-03-30T19:55:05.250Z,97157.73
2018-03-30T19:57:34.197Z,97154.27
2018-03-30T20:00:03.035Z,97148.55
2018-03-30T20:02:31.742Z,97137.77
2018-03-30T20:05:01.067Z,97130.47
2018-03-30T20:07:29.693Z,97128.48
2018-03-30T20:09:58.290Z,97132.88
2018-03-30T20:12:27.213Z,97125.58
2018-03-30T20:14:55.895Z,97123.86
2018-03-30T20:17:24.584Z,97118.05
2018-03-30T20:19:53.503Z,97118.97
2018-03-30T20:22:22.162Z,97116.73
2018-03-30T20:24:50.782Z,97109.59
2018-03-30T20:27:19.692Z,97112.73
2018-03-30T20:29:48.371Z,97101.78
2018-03-30T20:32:17.119Z,97099.23
2018-03-30T20:34:46.170Z,97095.58
2018-03-30T20:37:14.779Z,97091.27
2018-03-30T20:39:43.423Z,97086.22
2018-03-30T20:42:12.317Z,97084.30
2018-03-30T20:44:40.941Z,97082.23
2018-03-30T20:47:09.816Z,97081.97
2018-03-30T20:49:38.764Z,97086.14
2018-03-30T20:52:07.361Z,97088.61
2018-03-30T20:54:35.964Z,97095.55
2018-03-30T20:57:05.053Z,97096.05
2018-03-30T20:59:33.673Z,97091.05
2018-03-30T21:02:02.322Z,97093.09
2018-03-30T21:04:31.493Z,97094.49
2018-03-30T21:07:00.294Z,97095.97
2018-03-30T21:09:28.936Z,97091.36
2018-03-30T21:11:57.812Z,97087.84
2018-03-30T21:14:26.468Z,97080.11
2018-03-30T21:16:55.254Z,97085.20
2018-03-30T21:19:24.209Z,97086.55
2018-03-30T21:21:52.810Z,97076.33
2018-03-30T21:24:21.392Z,97072.64
2018-03-30T21:26:50.464Z,97078.77
2018-03-30T21:29:19.183Z,97080.82
2018-03-30T21:31:47.862Z,97083.20
2018-03-30T21:34:16.781Z,97076.46
2018-03-30T21:36:45.611Z,97075.03
2018-03-30T21:39:14.277Z,97069.13
2018-03-30T21:41:43.197Z,97072.66
2018-03-30T21:44:11.833Z,97074.66
2018-03-30T21:46:40.984Z,97080.24
2018-03-30T21:49:09.949Z,97079.45
2018-03-30T21:51:38.536Z,97089.47
2018-03-30T21:54:07.195Z,97092.80
2018-03-30T21:56:36.084Z,97097.54
2018-03-30T21:59:04.747Z,97099.12
2018-03-30T22:01:33.584Z,97102.31
2018-03-30T22:04:02.873Z,97082.33
2018-03-30T22:06:31.508Z,97080.52
2018-03-30T22:09:00.684Z,97069.59
2018-03-30T22:11:29.784Z,97067.05
2018-03-30T22:13:58.358Z,97056.67
2018-03-30T22:16:27.114Z,97059.08
2018-03-30T22:18:56.789Z,97052.33
2018-03-30T22:21:25.402Z,97057.25
2018-03-30T22:23:54.013Z,97059.48
2018-03-30T22:26:23.115Z,97060.07
2018-03-30T22:28:51.753Z,97053.86
2018-03-30T22:31:20.369Z,97039.11
2018-03-30T22:33:49.237Z,97036.87
2018-03-30T22:36:17.832Z,97036.30
2018-03-30T22:38:46.952Z,97033.11
2018-03-30T22:41:16.316Z,97033.66
2018-03-30T22:43:45.394Z,97037.20
2018-03-30T22:46:14.352Z,97029.68
2018-03-30T22:48:43.409Z,97030.95
2018-03-30T22:51:12.375Z,97020.74
2018-03-30T22:53:41.396Z,97015.77
2018-03-30T22:56:10.731Z,97007.84
2018-03-30T22:58:39.919Z,97011.50
2018-03-30T23:01:08.613Z,97015.34
2018-03-30T23:03:37.585Z,97014.52
2018-03-30T23:06:06.219Z,97023.85
2018-03-30T23:08:35.212Z,97025.47
2018-03-30T23:11:04.716Z,97038.44
2018-03-30T23:13:33.393Z,97044.77
2018-03-30T23:16:02.002Z,97053.56
2018-03-30T23:18:30.936Z,97049.31
2018-03-30T23:20:59.595Z,97051.80
2018-03-30T23:23:28.204Z,97050.09
2018-03-30T23:25:57.128Z,97050.98
2018-03-30T23:28:25.865Z,97044.98
2018-03-30T23:30:55.060Z,97049.22
2018-03-30T23:33:24.184Z,97056.15
2018-03-30T23:35:53.257Z,97045.89
2018-03-30T23:38:22.483Z,97054.28
2018-03-30T23:40:51.728Z,97051.59
2018-03-30T23:43:20.866Z,97049.22
2018-03-30T23:45:49.860Z,97046.03
2018-03-30T23:48:19.330Z,97038.28
2018-03-30T23:50:48.552Z,97031.07
2018-03-30T23:53:17.132Z,97037.53
2018-03-30T23:55:46.000Z,97039.95
2018-03-30T23:58:14.597Z,97044.92
